createdAt,value
2022-12-20T05:05:11.119Z,54.72
2022-12-20T05:07:46.393Z,55.45
2022-12-20T05:10:15.350Z,54.05
2022-12-20T05:12:43.724Z,54.70
2022-12-20T05:15:18.000Z,54.33
2022-12-20T05:17:45.467Z,54.13
2022-12-20T05:20:14.247Z,55.35
2022-12-20T05:23:03.223Z,54.72
2022-12-20T05:25:49.337Z,53.92
2022-12-20T05:28:17.419Z,51.40
2022-12-20T05:30:45.249Z,52.95
2022-12-20T05:33:13.147Z,54.05
2022-12-20T05:35:43.198Z,54.80
2022-12-20T05:38:13.242Z,57.33
2022-12-20T05:40:41.356Z,54.63
2022-12-20T05:43:10.814Z,50.63
2022-12-20T05:45:53.121Z,56.40
2022-12-20T05:48:29.962Z,55.80
2022-12-20T05:50:57.473Z,51.03
2022-12-20T05:53:32.814Z,51.83
2022-12-20T05:56:04.226Z,50.50
2022-12-20T05:58:38.317Z,49.28
2022-12-20T06:01:08.236Z,49.83
2022-12-20T06:06:14.580Z,48.38
2022-12-20T06:08:43.243Z,49.78
2022-12-20T06:11:16.022Z,50.45
2022-12-20T06:13:51.280Z,48.22
2022-12-20T06:16:21.138Z,49.72
2022-12-20T06:18:50.015Z,50.03
2022-12-20T06:21:18.107Z,48.97
2022-12-20T06:23:45.817Z,49.42
2022-12-20T06:26:15.025Z,50.03
2022-12-20T06:28:52.566Z,49.20
2022-12-20T06:31:27.040Z,49.78
2022-12-20T06:33:55.559Z,49.58
2022-12-20T06:36:26.645Z,48.97
2022-12-20T06:38:55.967Z,55.65
2022-12-20T06:41:23.578Z,53.20
2022-12-20T06:43:53.151Z,50.92
2022-12-20T06:46:20.760Z,52.90
2022-12-20T06:48:49.063Z,51.75
2022-12-20T06:51:18.036Z,50.13
2022-12-20T06:53:45.781Z,49.47
2022-12-20T06:56:13.185Z,50.28
2022-12-20T06:58:40.442Z,51.33
2022-12-20T07:01:08.075Z,52.60
2022-12-20T07:03:35.628Z,51.58
2022-12-20T07:06:02.982Z,49.70
2022-12-20T07:08:30.505Z,51.00
2022-12-20T07:11:04.516Z,53.35
2022-12-20T07:13:31.837Z,52.08
2022-12-20T07:16:04.434Z,50.25
2022-12-20T07:18:32.649Z,51.72
2022-12-20T07:21:05.709Z,52.42
2022-12-20T07:23:33.551Z,50.03
2022-12-20T07:26:01.724Z,51.58
2022-12-20T07:28:30.070Z,52.28
2022-12-20T07:31:02.102Z,53.10
2022-12-20T07:36:01.813Z,50.92
2022-12-20T07:38:30.669Z,55.72
2022-12-20T07:40:58.811Z,53.70
2022-12-20T07:43:26.666Z,53.50
2022-12-20T07:45:56.096Z,49.65
2022-12-20T07:48:24.571Z,51.95
2022-12-20T07:50:55.438Z,50.85
2022-12-20T07:53:26.457Z,50.60
2022-12-20T07:55:55.021Z,53.87
2022-12-20T07:58:22.787Z,49.88
2022-12-20T08:00:50.625Z,51.88
2022-12-20T08:03:23.757Z,54.13
2022-12-20T08:05:55.511Z,55.65
2022-12-20T08:08:22.969Z,52.38
2022-12-20T08:10:51.430Z,59.80
2022-12-20T08:13:19.280Z,59.67
2022-12-20T08:15:46.837Z,50.03
2022-12-20T08:18:14.146Z,62.33
2022-12-20T08:20:41.529Z,56.65
2022-12-20T08:23:08.874Z,54.10
2022-12-20T08:25:41.572Z,57.78
2022-12-20T08:28:09.608Z,50.92
2022-12-20T08:30:37.967Z,49.55
2022-12-20T08:33:05.910Z,55.17
2022-12-20T08:35:33.546Z,51.45
2022-12-20T08:38:01.355Z,50.28
2022-12-20T08:40:29.120Z,53.28
2022-12-20T08:42:56.397Z,52.65
2022-12-20T08:45:23.709Z,54.17
2022-12-20T08:47:51.478Z,53.08
2022-12-20T08:50:19.525Z,54.83
2022-12-20T08:52:47.439Z,55.22
2022-12-20T08:55:14.760Z,56.55
2022-12-20T08:57:42.433Z,59.67
2022-12-20T09:00:11.315Z,57.53
2022-12-20T09:02:38.899Z,55.30
2022-12-20T09:05:06.898Z,54.05
2022-12-20T09:07:34.688Z,55.85
2022-12-20T09:10:03.119Z,52.22
2022-12-20T09:12:30.388Z,52.10
2022-12-20T09:14:57.779Z,51.45
2022-12-20T09:17:25.200Z,49.38
2022-12-20T09:19:52.472Z,50.78
2022-12-20T09:22:19.692Z,49.13
2022-12-20T09:24:46.917Z,48.90
2022-12-20T09:27:14.182Z,48.65
2022-12-20T09:29:42.096Z,51.35
2022-12-20T09:32:09.621Z,50.17
2022-12-20T09:34:37.667Z,49.45
2022-12-20T09:37:05.977Z,49.75
2022-12-20T09:39:33.354Z,48.72
2022-12-20T09:42:01.434Z,50.58
2022-12-20T09:44:32.002Z,48.72
2022-12-20T09:47:10.062Z,48.17
2022-12-20T09:49:43.846Z,48.72
2022-12-20T09:52:36.377Z,48.67
2022-12-20T09:55:39.785Z,49.95
2022-12-20T09:58:21.425Z,51.67
2022-12-20T10:00:54.339Z,55.47
2022-12-20T10:03:36.136Z,50.63
2022-12-20T10:06:26.076Z,51.15
2022-12-20T10:09:02.167Z,50.17
2022-12-20T10:11:42.007Z,46.88
2022-12-20T10:14:43.796Z,45.40
2022-12-20T10:17:17.672Z,46.20
2022-12-20T10:20:09.245Z,44.72
2022-12-20T10:23:29.455Z,46.30
2022-12-20T10:26:00.500Z,44.72
2022-12-20T10:28:35.171Z,44.90
2022-12-20T10:31:06.644Z,45.33
2022-12-20T10:33:34.433Z,45.75
2022-12-20T10:36:28.105Z,45.10
2022-12-20T10:39:00.391Z,45.67
2022-12-20T10:41:31.001Z,46.38
2022-12-20T10:44:14.845Z,43.00
2022-12-20T10:46:46.637Z,45.22
2022-12-20T10:49:29.389Z,44.03
2022-12-20T10:52:18.291Z,42.92
2022-12-20T10:54:46.980Z,43.75
2022-12-20T10:57:26.729Z,44.65
2022-12-20T10:59:58.225Z,42.15
2022-12-20T11:02:40.121Z,43.25
2022-12-20T11:05:09.753Z,44.63
2022-12-20T11:08:24.660Z,41.50
2022-12-20T11:10:40.201Z,44.88
2022-12-20T11:13:23.415Z,43.17
2022-12-20T11:15:57.063Z,42.30
2022-12-20T11:18:38.292Z,43.25
2022-12-20T11:21:28.043Z,41.08
2022-12-20T11:24:04.904Z,43.90
2022-12-20T11:26:48.193Z,42.90
2022-12-20T11:29:34.549Z,41.08
2022-12-20T11:32:14.305Z,43.28
2022-12-20T11:34:59.747Z,44.90
2022-12-20T11:37:34.341Z,43.72
2022-12-20T11:40:32.484Z,46.83
2022-12-20T11:43:31.000Z,44.38
2022-12-20T11:46:23.019Z,46.67
2022-12-20T11:48:56.829Z,44.58
2022-12-20T11:51:28.275Z,44.47
2022-12-20T11:54:01.631Z,44.63
2022-12-20T11:56:47.327Z,43.08
2022-12-20T11:59:43.519Z,46.58
2022-12-20T12:02:14.637Z,45.13
2022-12-20T12:04:56.165Z,53.70
2022-12-20T12:07:31.012Z,51.63
2022-12-20T12:10:23.527Z,55.60
2022-12-20T12:12:59.502Z,49.38
2022-12-20T12:15:46.761Z,45.00
2022-12-20T12:18:21.194Z,48.22
2022-12-20T12:20:48.540Z,43.78
2022-12-20T12:23:15.723Z,47.40
2022-12-20T12:25:43.272Z,47.92
2022-12-20T12:28:14.129Z,50.58
2022-12-20T12:30:54.131Z,49.35
2022-12-20T12:33:45.712Z,47.67
2022-12-20T12:36:18.897Z,46.85
2022-12-20T12:39:05.362Z,49.85
2022-12-20T12:42:00.192Z,48.92
2022-12-20T12:44:43.688Z,53.05
2022-12-20T12:47:22.179Z,54.00
2022-12-20T12:49:53.895Z,52.45
2022-12-20T12:52:52.372Z,49.92
2022-12-20T12:55:38.425Z,55.17
2022-12-20T12:58:24.686Z,54.08
2022-12-20T13:00:52.326Z,48.88
2022-12-20T13:03:47.880Z,49.28
2022-12-20T13:06:25.143Z,47.22
2022-12-20T13:08:59.318Z,46.40
2022-12-20T13:11:36.267Z,44.90
2022-12-20T13:14:27.450Z,44.22
2022-12-20T13:17:24.079Z,41.70
2022-12-20T13:19:57.656Z,38.83
2022-12-20T13:22:26.685Z,40.83
2022-12-20T13:24:58.686Z,39.58
2022-12-20T13:29:59.567Z,39.67
2022-12-20T13:32:48.779Z,36.45
2022-12-20T13:35:25.395Z,36.63
2022-12-20T13:38:02.062Z,36.40
2022-12-20T13:40:40.993Z,36.97
2022-12-20T13:43:17.947Z,36.03
2022-12-20T13:45:53.316Z,36.38
2022-12-20T13:48:31.927Z,35.95
2022-12-20T13:51:00.256Z,39.72
2022-12-20T13:53:28.443Z,36.53
2022-12-20T13:55:56.454Z,36.35
2022-12-20T13:58:36.716Z,36.22
2022-12-20T14:01:07.306Z,36.22
2022-12-20T14:03:41.912Z,35.70
2022-12-20T14:06:12.003Z,34.42
2022-12-20T14:08:47.250Z,34.17
2022-12-20T14:11:26.805Z,36.20
2022-12-20T14:14:04.688Z,35.05
2022-12-20T14:16:33.707Z,36.45
2022-12-20T14:19:03.622Z,35.17
2022-12-20T14:21:34.263Z,34.00
2022-12-20T14:24:03.173Z,32.75
2022-12-20T14:26:38.096Z,32.50
2022-12-20T14:29:16.262Z,34.22
2022-12-20T14:31:46.501Z,30.35
2022-12-20T14:34:29.796Z,30.55
2022-12-20T14:37:27.615Z,29.52
2022-12-20T14:40:00.159Z,27.95
2022-12-20T14:42:34.617Z,30.17
2022-12-20T14:45:26.843Z,27.73
2022-12-20T14:50:33.297Z,28.30
2022-12-20T14:53:01.904Z,29.48
2022-12-20T14:55:38.964Z,28.70
2022-12-20T14:58:24.720Z,26.30
2022-12-20T15:01:01.283Z,27.15
2022-12-20T15:03:30.008Z,26.63
2022-12-20T15:05:59.925Z,26.48
2022-12-20T15:08:34.900Z,26.75
2022-12-20T15:11:03.511Z,28.45
2022-12-20T15:13:37.302Z,28.75
2022-12-20T15:16:14.468Z,28.23
2022-12-20T15:18:42.695Z,26.60
2022-12-20T15:21:15.981Z,28.95
2022-12-20T15:23:49.202Z,28.50
2022-12-20T15:26:18.629Z,29.48
2022-12-20T15:28:46.698Z,26.65
2022-12-20T15:31:17.521Z,28.40
2022-12-20T15:33:46.037Z,28.13
2022-12-20T15:36:26.491Z,28.17
2022-12-20T15:39:12.442Z,27.88
2022-12-20T15:41:49.656Z,28.48
2022-12-20T15:44:20.918Z,28.38
2022-12-20T15:46:49.040Z,31.00
2022-12-20T15:49:21.933Z,31.05
2022-12-20T15:51:51.068Z,28.92
2022-12-20T15:54:35.628Z,28.27
2022-12-20T15:57:09.241Z,29.60
2022-12-20T16:02:27.054Z,29.92
2022-12-20T16:04:55.396Z,28.95
2022-12-20T16:07:24.118Z,29.73
2022-12-20T16:09:51.692Z,27.90
2022-12-20T16:12:25.346Z,29.80
2022-12-20T16:14:53.246Z,27.55
2022-12-20T16:17:21.001Z,27.42
2022-12-20T16:19:48.445Z,28.65
2022-12-20T16:22:18.169Z,28.25
2022-12-20T16:24:46.409Z,28.02
2022-12-20T16:27:14.301Z,28.60
2022-12-20T16:29:42.110Z,29.75
2022-12-20T16:32:15.727Z,31.85
2022-12-20T16:34:43.766Z,31.70
2022-12-20T16:37:14.213Z,28.25
2022-12-20T16:39:42.874Z,28.60
2022-12-20T16:42:18.757Z,28.30
2022-12-20T16:44:51.583Z,31.23
2022-12-20T16:47:18.989Z,29.88
2022-12-20T16:49:52.361Z,29.75
2022-12-20T16:52:22.782Z,30.30
2022-12-20T16:54:51.718Z,28.10
2022-12-20T16:57:21.122Z,29.55
2022-12-20T16:59:48.439Z,28.48
2022-12-20T17:02:22.009Z,28.95
2022-12-20T17:04:49.457Z,28.67
2022-12-20T17:07:16.857Z,29.90
2022-12-20T17:09:44.257Z,29.25
2022-12-20T17:12:16.917Z,37.00
2022-12-20T17:14:44.712Z,34.38
2022-12-20T17:17:12.548Z,30.13
2022-12-20T17:19:41.360Z,29.58
2022-12-20T17:22:24.712Z,30.13
2022-12-20T17:24:52.315Z,31.23
2022-12-20T17:27:19.777Z,30.30
2022-12-20T17:29:47.208Z,29.25
2022-12-20T17:32:32.689Z,29.33
2022-12-20T17:34:59.956Z,27.90
2022-12-20T17:37:27.989Z,29.50
2022-12-20T17:39:55.357Z,28.35
2022-12-20T17:42:28.769Z,31.23
2022-12-20T17:44:58.371Z,28.55
2022-12-20T17:47:26.122Z,28.70
2022-12-20T17:49:53.850Z,28.10
2022-12-20T17:52:21.720Z,28.65
2022-12-20T17:54:49.297Z,34.38
2022-12-20T17:57:17.030Z,26.27
2022-12-20T17:59:44.673Z,25.90
2022-12-20T18:02:20.176Z,26.08
2022-12-20T18:04:48.626Z,27.65
2022-12-20T18:07:16.037Z,38.05
2022-12-20T18:09:47.078Z,33.40
2022-12-20T18:12:14.725Z,31.70
2022-12-20T18:14:42.161Z,28.75
2022-12-20T18:17:09.645Z,27.20
2022-12-20T18:19:37.047Z,26.17
2022-12-20T18:22:04.957Z,26.23
2022-12-20T18:24:32.400Z,26.63
2022-12-20T18:27:00.181Z,25.65
2022-12-20T18:29:28.461Z,28.13
2022-12-20T18:31:56.333Z,26.25
2022-12-20T18:34:23.810Z,26.30
2022-12-20T18:36:51.514Z,27.63
2022-12-20T18:39:19.497Z,24.15
2022-12-20T18:41:48.288Z,35.83
2022-12-20T18:44:16.318Z,27.65
2022-12-20T18:46:44.293Z,25.63
2022-12-20T18:49:11.809Z,29.05
2022-12-20T18:51:39.303Z,28.83
2022-12-20T18:54:10.157Z,37.67
2022-12-20T18:56:39.228Z,30.75
2022-12-20T18:59:13.052Z,27.85
2022-12-20T19:01:43.262Z,28.20
2022-12-20T19:04:11.468Z,29.65
2022-12-20T19:06:40.313Z,26.25
2022-12-20T19:09:10.910Z,30.20
2022-12-20T19:11:39.014Z,26.75
2022-12-20T19:14:07.604Z,29.90
2022-12-20T19:16:35.458Z,27.38
2022-12-20T19:19:03.622Z,57.78
2022-12-20T19:21:33.652Z,39.92
2022-12-20T19:24:05.229Z,31.85
2022-12-20T19:26:34.235Z,28.27
2022-12-20T19:29:01.622Z,32.55
2022-12-20T19:31:30.826Z,48.38
2022-12-20T19:34:02.110Z,26.73
2022-12-20T19:36:38.996Z,26.63
2022-12-20T19:39:11.916Z,33.38
2022-12-20T19:41:40.076Z,29.75
2022-12-20T19:44:08.850Z,32.47
2022-12-20T19:46:36.502Z,36.45
2022-12-20T19:49:03.996Z,33.25
2022-12-20T19:51:31.889Z,29.23
2022-12-20T19:54:00.102Z,36.13
2022-12-20T19:56:31.567Z,31.80
2022-12-20T19:59:00.124Z,32.72
2022-12-20T20:01:28.378Z,48.55
2022-12-20T20:03:58.567Z,29.60
2022-12-20T20:06:27.298Z,27.30
2022-12-20T20:08:59.422Z,30.27
2022-12-20T20:11:28.154Z,27.05
2022-12-20T20:13:56.501Z,27.75
2022-12-20T20:16:24.221Z,28.23
2022-12-20T20:18:53.006Z,28.30
2022-12-20T20:21:24.067Z,28.50
2022-12-20T20:23:54.653Z,29.50
2022-12-20T20:26:29.169Z,28.45
2022-12-20T20:28:57.058Z,29.70
2022-12-20T20:31:24.496Z,27.10
2022-12-20T20:33:54.973Z,28.50
2022-12-20T20:36:23.969Z,34.15
2022-12-20T20:38:52.249Z,35.53
2022-12-20T20:41:20.418Z,29.23
2022-12-20T20:43:48.741Z,28.17
2022-12-20T20:46:17.208Z,28.95
2022-12-20T20:48:44.917Z,30.95
2022-12-20T20:51:13.745Z,31.30
2022-12-20T20:53:43.896Z,29.08
2022-12-20T20:56:12.954Z,31.52
2022-12-20T20:58:40.726Z,31.90
2022-12-20T21:01:09.923Z,32.70
2022-12-20T21:03:38.678Z,32.40
2022-12-20T21:08:58.870Z,32.27
2022-12-20T21:11:27.805Z,32.55
2022-12-20T21:13:55.569Z,33.17
2022-12-20T21:16:24.429Z,32.10
2022-12-20T21:18:57.361Z,32.53
2022-12-20T21:21:26.246Z,31.90
2022-12-20T21:23:55.651Z,34.13
2022-12-20T21:26:25.229Z,34.22
2022-12-20T21:28:57.450Z,34.35
2022-12-20T21:31:25.193Z,35.75
2022-12-20T21:33:52.873Z,37.35
2022-12-20T21:36:20.782Z,35.78
2022-12-20T21:38:56.618Z,35.10
2022-12-20T21:41:26.583Z,33.78
2022-12-20T21:43:58.806Z,32.20
2022-12-20T21:46:28.015Z,32.05
2022-12-20T21:48:55.561Z,31.65
2022-12-20T21:51:25.064Z,32.90
2022-12-20T21:53:55.285Z,32.35
2022-12-20T21:56:26.025Z,30.27
2022-12-20T21:58:53.914Z,31.33
2022-12-20T22:01:24.861Z,31.15
2022-12-20T22:06:21.905Z,30.42
2022-12-20T22:08:49.868Z,30.67
2022-12-20T22:11:18.645Z,30.83
2022-12-20T22:13:46.580Z,31.58
2022-12-20T22:16:17.183Z,31.42
2022-12-20T22:18:48.898Z,31.42
2022-12-20T22:21:17.616Z,32.33
2022-12-20T22:23:45.403Z,30.92
2022-12-20T22:26:16.250Z,32.20
2022-12-20T22:28:52.147Z,33.22
2022-12-20T22:31:20.824Z,31.08
2022-12-20T22:33:49.508Z,32.78
2022-12-20T22:36:17.625Z,32.67
2022-12-20T22:38:45.746Z,33.75
2022-12-20T22:41:22.272Z,33.10
2022-12-20T22:43:50.193Z,31.23
2022-12-20T22:46:18.824Z,33.13
2022-12-20T22:48:46.954Z,33.65
2022-12-20T22:51:19.195Z,31.73
2022-12-20T22:53:47.664Z,32.42
2022-12-20T22:56:18.689Z,32.90
2022-12-20T22:58:46.055Z,34.00
2022-12-20T23:01:15.315Z,32.55
2022-12-20T23:03:43.301Z,32.60
2022-12-20T23:06:14.535Z,31.58
2022-12-20T23:08:42.600Z,32.45
2022-12-20T23:11:37.197Z,32.75
2022-12-20T23:14:24.516Z,32.22
2022-12-20T23:16:51.981Z,32.30
2022-12-20T23:19:19.351Z,32.97
2022-12-20T23:22:05.223Z,30.92
2022-12-20T23:24:32.609Z,31.77
2022-12-20T23:27:00.161Z,31.83
2022-12-20T23:29:29.753Z,30.83
2022-12-20T23:31:57.077Z,32.08
2022-12-20T23:34:24.464Z,31.75
2022-12-20T23:36:52.700Z,31.02
2022-12-20T23:39:20.023Z,30.60
2022-12-20T23:41:47.356Z,29.45
2022-12-20T23:44:15.150Z,28.65
2022-12-20T23:46:42.435Z,28.52
2022-12-20T23:49:09.759Z,27.92
2022-12-20T23:51:37.077Z,27.85
2022-12-20T23:54:04.703Z,28.05
2022-12-20T23:56:32.034Z,28.52
2022-12-20T23:58:59.394Z,28.02
